Time;durP1;ratioP1;P1;durP2;ratioP2;P2;SDS_P1;SDS_P2;PMS_P1;PMS_P2;Temp;Humidity;BMP_temperature;BMP_pressure;BME280_temperature;BME280_humidity;BME280_pressure;Samples;Min_cycle;Max_cycle;Signal;HPM_P1;HPM_P2
2022/04/08 00:01:27;;;;;;;2.55;0.75;;;8.50;60.40;;;;;;5013498;28;20049;-76
2022/04/08 00:03:53;;;;;;;4.57;0.60;;;8.40;60.40;;;;;;5057833;28;20064;-75
2022/04/08 00:06:19;;;;;;;8.35;1.23;;;8.40;60.30;;;;;;5038623;28;20560;-76
2022/04/08 00:08:45;;;;;;;4.57;2.15;;;8.50;60.40;;;;;;5031616;28;20056;-75
2022/04/08 00:11:11;;;;;;;3.35;0.82;;;8.40;60.30;;;;;;5058406;28;20044;-76
2022/04/08 00:13:36;;;;;;;3.55;0.75;;;8.40;60.20;;;;;;5041136;28;20028;-77
2022/04/08 00:16:02;;;;;;;6.85;1.10;;;8.40;60.40;;;;;;5049952;28;20090;-75
2022/04/08 00:18:29;;;;;;;3.42;0.65;;;8.40;60.40;;;;;;5036636;28;20443;-76
2022/04/08 00:20:55;;;;;;;4.00;0.98;;;8.40;60.40;;;;;;5051986;28;20032;-75
2022/04/08 00:23:21;;;;;;;1.98;0.50;;;8.40;60.40;;;;;;5037168;28;20032;-74
2022/04/08 00:25:46;;;;;;;5.75;0.70;;;8.40;60.40;;;;;;5050599;28;20037;-75
2022/04/08 00:28:12;;;;;;;3.60;0.93;;;8.40;60.40;;;;;;5060241;28;20033;-75
2022/04/08 00:30:38;;;;;;;2.28;0.63;;;8.40;60.50;;;;;;5064351;28;20044;-75
2022/04/08 00:33:03;;;;;;;3.97;0.75;;;8.40;60.50;;;;;;5053191;28;20040;-75
2022/04/08 00:35:29;;;;;;;4.22;1.13;;;8.40;60.50;;;;;;5035947;28;20041;-75
2022/04/08 00:37:54;;;;;;;4.43;0.90;;;8.30;60.50;;;;;;5065709;28;20030;-75
2022/04/08 00:40:20;;;;;;;2.70;0.65;;;8.40;60.70;;;;;;5039253;28;20032;-75
2022/04/08 00:42:45;;;;;;;3.60;0.90;;;8.30;60.50;;;;;;5047198;28;20031;-75
2022/04/08 00:45:11;;;;;;;3.08;0.80;;;8.30;60.60;;;;;;5061147;28;20116;-76
2022/04/08 00:47:40;;;;;;;6.10;0.90;;;8.30;60.70;;;;;;5038714;28;20064;-74
2022/04/08 00:50:06;;;;;;;5.93;1.63;;;8.30;60.70;;;;;;5048699;28;20042;-75
2022/04/08 00:52:32;;;;;;;4.22;0.80;;;8.30;60.80;;;;;;5033601;28;20101;-74
2022/04/08 00:54:58;;;;;;;3.72;0.68;;;8.30;60.80;;;;;;5036459;28;20047;-75
2022/04/08 00:57:23;;;;;;;8.35;0.98;;;8.30;61.70;;;;;;5050724;28;20035;-76
2022/04/08 00:59:49;;;;;;;2.13;0.82;;;8.30;61.00;;;;;;5044572;28;20037;-75
2022/04/08 01:02:15;;;;;;;6.22;0.95;;;8.20;61.00;;;;;;5054421;28;20049;-75
2022/04/08 01:04:40;;;;;;;3.20;0.50;;;8.20;61.00;;;;;;5047337;28;20041;-76
2022/04/08 01:07:06;;;;;;;5.07;0.90;;;8.20;61.00;;;;;;5030040;28;20640;-75
2022/04/08 01:09:32;;;;;;;4.95;1.10;;;8.20;61.10;;;;;;5036376;28;20033;-75
2022/04/08 01:11:57;;;;;;;3.42;0.93;;;8.20;61.20;;;;;;5046397;28;20569;-75
2022/04/08 01:14:23;;;;;;;4.38;0.70;;;8.20;61.30;;;;;;5024436;28;20413;-76
2022/04/08 01:16:48;;;;;;;2.95;0.70;;;8.20;61.30;;;;;;5067162;28;20116;-76
2022/04/08 01:19:14;;;;;;;4.53;1.17;;;8.20;61.40;;;;;;5048058;28;20045;-75
2022/04/08 01:21:39;;;;;;;3.13;0.70;;;8.20;61.40;;;;;;5048548;28;20071;-75
2022/04/08 01:24:05;;;;;;;3.78;0.88;;;8.20;61.50;;;;;;5055271;28;20040;-74
2022/04/08 01:26:31;;;;;;;5.65;1.00;;;8.20;61.50;;;;;;5046653;28;20037;-75
2022/04/08 01:28:57;;;;;;;5.25;1.00;;;8.20;61.60;;;;;;5041884;28;20509;-75
2022/04/08 01:31:24;;;;;;;4.18;0.90;;;8.20;61.70;;;;;;5004135;28;20037;-75
2022/04/08 01:33:51;;;;;;;2.63;0.80;;;8.10;61.70;;;;;;5046687;28;20045;-75
2022/04/08 01:36:16;;;;;;;7.05;2.45;;;8.10;61.70;;;;;;5022060;28;20036;-74
2022/04/08 01:38:42;;;;;;;6.57;1.00;;;8.10;61.80;;;;;;5022168;28;20033;-75
2022/04/08 01:41:08;;;;;;;6.20;1.23;;;8.10;62.00;;;;;;5039993;28;20037;-75
2022/04/08 01:43:33;;;;;;;8.43;1.02;;;8.10;62.00;;;;;;5049488;28;20039;-75
2022/04/08 01:45:59;;;;;;;7.13;1.15;;;8.10;62.00;;;;;;5021382;28;20047;-75
2022/04/08 01:48:25;;;;;;;7.03;1.00;;;8.10;62.00;;;;;;5038749;28;20617;-76
2022/04/08 01:50:50;;;;;;;3.70;1.10;;;8.10;62.10;;;;;;5054592;28;20492;-76
2022/04/08 01:53:17;;;;;;;5.22;0.80;;;8.10;62.20;;;;;;5058737;28;20057;-75
2022/04/08 01:55:43;;;;;;;4.22;0.90;;;8.10;62.30;;;;;;5046289;28;20526;-75
2022/04/08 01:58:10;;;;;;;5.20;0.90;;;8.10;62.30;;;;;;5040383;28;20028;-76
2022/04/08 02:00:36;;;;;;;5.57;0.90;;;8.00;62.30;;;;;;5057079;28;20020;-76
2022/04/08 02:03:02;;;;;;;4.55;1.08;;;8.00;62.40;;;;;;5059006;28;20050;-75
2022/04/08 02:05:27;;;;;;;5.95;0.95;;;8.00;62.50;;;;;;5052193;28;20025;-76
2022/04/08 02:07:54;;;;;;;7.13;1.27;;;8.00;62.60;;;;;;5054314;28;20036;-77
2022/04/08 02:10:20;;;;;;;4.68;1.15;;;8.00;62.60;;;;;;5042929;28;20509;-76
2022/04/08 02:12:45;;;;;;;6.20;1.08;;;8.00;62.70;;;;;;5051568;28;20040;-75
2022/04/08 02:15:11;;;;;;;4.60;0.98;;;8.00;63.60;;;;;;5035828;28;20071;-75
2022/04/08 02:17:37;;;;;;;7.75;1.13;;;8.10;62.80;;;;;;5060634;28;20666;-75
2022/04/08 02:20:04;;;;;;;4.10;1.17;;;8.10;62.90;;;;;;5052874;28;20114;-75
2022/04/08 02:22:30;;;;;;;3.70;0.77;;;8.10;62.90;;;;;;5035798;28;20119;-75
2022/04/08 02:24:56;;;;;;;5.38;1.00;;;8.10;62.90;;;;;;5048118;28;20059;-76
2022/04/08 02:27:23;;;;;;;6.88;1.15;;;8.10;63.00;;;;;;5054789;28;20039;-76
2022/04/08 02:29:49;;;;;;;5.55;1.40;;;8.10;63.00;;;;;;5053709;28;20029;-76
2022/04/08 02:32:14;;;;;;;5.32;1.40;;;8.10;63.80;;;;;;5025289;28;20048;-76
2022/04/08 02:34:40;;;;;;;6.15;1.83;;;8.10;63.10;;;;;;5065715;28;20044;-75
2022/04/08 02:37:06;;;;;;;2.83;0.93;;;8.10;63.00;;;;;;5017990;28;20045;-75
2022/04/08 02:39:31;;;;;;;7.90;1.10;;;8.10;63.00;;;;;;5025665;28;20090;-75
2022/04/08 02:41:57;;;;;;;6.63;1.10;;;8.10;63.10;;;;;;5033491;28;20032;-76
2022/04/08 02:44:23;;;;;;;9.88;1.60;;;8.20;63.20;;;;;;5053562;28;20036;-75
2022/04/08 02:46:48;;;;;;;8.18;1.20;;;8.20;63.20;;;;;;5002867;28;20045;-75
2022/04/08 02:49:14;;;;;;;5.63;1.00;;;8.10;63.40;;;;;;5049922;28;20115;-76
2022/04/08 02:51:39;;;;;;;9.85;1.27;;;8.10;63.60;;;;;;5047990;28;20036;-76
2022/04/08 02:54:05;;;;;;;8.60;1.33;;;8.10;63.90;;;;;;5047832;28;20040;-75
2022/04/08 02:56:30;;;;;;;5.03;1.45;;;8.10;64.10;;;;;;5061071;28;20100;-76
2022/04/08 02:58:57;;;;;;;2.63;0.93;;;8.10;64.20;;;;;;5053174;28;20086;-75
2022/04/08 03:01:23;;;;;;;8.02;1.10;;;8.10;64.30;;;;;;5016939;28;20025;-75
2022/04/08 03:03:48;;;;;;;5.88;1.15;;;8.00;64.30;;;;;;5055768;28;20087;-76
2022/04/08 03:06:14;;;;;;;7.63;2.00;;;8.00;64.40;;;;;;5050078;28;22028;-75
2022/04/08 03:08:40;;;;;;;3.72;1.25;;;8.00;64.50;;;;;;5054397;28;20032;-74
2022/04/08 03:11:05;;;;;;;6.65;1.05;;;8.00;64.50;;;;;;5033844;28;20033;-75
2022/04/08 03:13:31;;;;;;;4.72;1.27;;;8.00;64.60;;;;;;5030588;28;20493;-75
2022/04/08 03:15:57;;;;;;;3.35;1.00;;;8.00;64.70;;;;;;5035922;28;20206;-76
2022/04/08 03:18:22;;;;;;;5.47;0.90;;;8.00;64.70;;;;;;5045787;28;20116;-75
2022/04/08 03:20:48;;;;;;;7.03;0.98;;;7.90;64.60;;;;;;5037026;28;20028;-76
2022/04/08 03:23:14;;;;;;;3.70;0.75;;;8.00;64.70;;;;;;5051741;28;20035;-76
2022/04/08 03:25:39;;;;;;;5.93;1.13;;;7.90;64.70;;;;;;5043552;28;20378;-76
2022/04/08 03:28:05;;;;;;;4.85;1.13;;;7.90;64.80;;;;;;5044866;28;20033;-76
2022/04/08 03:30:31;;;;;;;8.02;0.98;;;8.00;64.90;;;;;;5076880;28;20021;-76
2022/04/08 03:32:57;;;;;;;7.05;1.42;;;8.00;65.00;;;;;;5026950;28;20121;-76
2022/04/08 03:35:23;;;;;;;7.35;1.15;;;7.90;64.90;;;;;;5042107;28;20437;-76
2022/04/08 03:37:48;;;;;;;5.70;1.00;;;7.90;65.00;;;;;;5060377;28;20036;-76
2022/04/08 03:40:14;;;;;;;10.82;1.10;;;7.90;65.00;;;;;;5038280;28;20112;-76
2022/04/08 03:42:39;;;;;;;4.25;0.80;;;7.90;65.00;;;;;;5052116;28;20036;-76
2022/04/08 03:45:06;;;;;;;4.30;1.13;;;7.90;65.10;;;;;;5033287;28;20028;-77
2022/04/08 03:47:31;;;;;;;9.25;1.33;;;7.90;65.20;;;;;;5029474;28;20086;-77
2022/04/08 03:49:57;;;;;;;4.32;0.70;;;7.90;65.30;;;;;;5074377;28;20085;-76
2022/04/08 03:52:23;;;;;;;4.65;1.25;;;7.90;65.40;;;;;;5042529;28;20032;-76
2022/04/08 03:54:48;;;;;;;5.15;0.70;;;7.90;65.50;;;;;;5051607;28;20024;-78
2022/04/08 03:57:14;;;;;;;3.70;0.90;;;7.90;65.70;;;;;;5029028;28;20045;-78
2022/04/08 03:59:40;;;;;;;6.10;0.70;;;7.90;66.00;;;;;;5042951;28;20033;-76
2022/04/08 04:02:07;;;;;;;4.85;0.50;;;7.80;66.20;;;;;;5040660;28;20044;-76
2022/04/08 04:04:33;;;;;;;4.10;0.77;;;7.80;66.70;;;;;;5040813;28;20143;-76
2022/04/08 04:06:58;;;;;;;3.38;0.82;;;7.70;67.00;;;;;;5036501;28;20119;-76
2022/04/08 04:09:24;;;;;;;1.67;0.63;;;7.60;67.20;;;;;;5048205;28;20040;-77
2022/04/08 04:11:50;;;;;;;3.63;0.80;;;7.60;67.50;;;;;;5048356;28;20044;-75
2022/04/08 04:14:16;;;;;;;1.95;0.50;;;7.60;67.80;;;;;;5051177;28;20039;-77
2022/04/08 04:16:41;;;;;;;4.43;0.73;;;7.50;68.10;;;;;;5038663;28;20045;-76
2022/04/08 04:19:07;;;;;;;1.08;0.60;;;7.50;68.30;;;;;;5018662;28;20033;-76
2022/04/08 04:21:33;;;;;;;2.40;0.80;;;7.40;68.60;;;;;;5014653;28;20500;-76
2022/04/08 04:23:58;;;;;;;4.03;0.77;;;7.40;68.90;;;;;;5012802;28;20045;-75
2022/04/08 04:26:24;;;;;;;2.75;0.98;;;7.30;69.10;;;;;;5017671;28;20064;-75
2022/04/08 04:28:49;;;;;;;2.70;0.77;;;7.30;69.40;;;;;;5021545;28;20112;-77
2022/04/08 04:31:15;;;;;;;3.33;0.90;;;7.20;69.60;;;;;;5008813;28;20065;-75
2022/04/08 04:33:40;;;;;;;0.55;0.55;;;7.20;70.00;;;;;;5022202;28;20423;-75
2022/04/08 04:36:06;;;;;;;2.10;0.68;;;7.20;70.20;;;;;;5018284;28;20439;-75
2022/04/08 04:38:31;;;;;;;0.73;0.73;;;7.20;70.40;;;;;;5019773;28;20539;-77
2022/04/08 04:40:57;;;;;;;3.60;1.23;;;7.20;70.40;;;;;;5009180;28;20032;-75
2022/04/08 04:43:22;;;;;;;1.02;0.80;;;7.10;70.50;;;;;;5041313;28;20078;-75
2022/04/08 04:45:48;;;;;;;1.85;0.60;;;7.20;70.80;;;;;;5010760;28;20076;-75
2022/04/08 04:48:13;;;;;;;0.77;0.50;;;7.10;71.00;;;;;;5022526;28;20087;-75
2022/04/08 04:50:39;;;;;;;2.40;1.00;;;7.10;71.10;;;;;;5030342;28;20358;-75
2022/04/08 04:53:05;;;;;;;0.82;0.68;;;7.00;71.20;;;;;;4992424;28;20177;-75
2022/04/08 04:55:30;;;;;;;1.50;0.80;;;7.00;71.40;;;;;;5028656;28;20033;-75
2022/04/08 04:57:56;;;;;;;2.55;0.80;;;6.90;71.60;;;;;;5041187;28;20040;-76
2022/04/08 05:00:22;;;;;;;2.45;0.75;;;6.90;71.80;;;;;;5016415;28;20029;-74
2022/04/08 05:02:48;;;;;;;1.42;0.98;;;6.90;71.90;;;;;;4976912;28;20033;-75
2022/04/08 05:05:14;;;;;;;0.95;0.88;;;6.80;72.00;;;;;;5016846;28;20587;-75
2022/04/08 05:07:40;;;;;;;3.00;1.20;;;6.80;72.20;;;;;;5037973;28;20063;-75
2022/04/08 05:10:06;;;;;;;3.10;0.98;;;6.80;72.40;;;;;;5004013;28;20048;-75
2022/04/08 05:12:32;;;;;;;3.10;1.00;;;6.80;72.50;;;;;;5018848;28;20060;-76
2022/04/08 05:14:58;;;;;;;3.55;1.10;;;6.80;72.70;;;;;;5018175;28;20048;-75
2022/04/08 05:17:23;;;;;;;2.25;0.80;;;6.80;72.80;;;;;;5013459;28;20037;-76
2022/04/08 05:19:49;;;;;;;1.45;1.00;;;6.80;73.00;;;;;;5037867;28;20036;-75
2022/04/08 05:22:14;;;;;;;2.90;0.90;;;6.80;73.10;;;;;;5048817;28;20032;-75
2022/04/08 05:24:40;;;;;;;0.82;0.63;;;6.80;73.20;;;;;;5017147;28;20084;-75
2022/04/08 05:27:06;;;;;;;1.10;1.00;;;6.80;73.30;;;;;;5038229;28;20029;-76
2022/04/08 05:29:32;;;;;;;2.35;0.80;;;6.80;73.40;;;;;;5031043;28;20037;-75
2022/04/08 05:31:58;;;;;;;2.75;1.10;;;6.80;73.60;;;;;;5037098;28;20779;-76
2022/04/08 05:34:23;;;;;;;1.50;0.88;;;6.80;73.90;;;;;;5030538;28;20059;-76
2022/04/08 05:36:49;;;;;;;1.45;0.80;;;6.80;73.90;;;;;;5048532;28;20641;-76
2022/04/08 05:39:14;;;;;;;2.97;1.15;;;6.80;74.00;;;;;;5035087;28;20120;-76
2022/04/08 05:41:40;;;;;;;1.17;1.00;;;6.80;74.10;;;;;;5028623;28;20120;-75
2022/04/08 05:44:05;;;;;;;1.55;0.70;;;6.80;74.30;;;;;;5062410;28;20082;-75
2022/04/08 05:46:31;;;;;;;1.23;0.60;;;6.90;74.50;;;;;;5022306;28;20074;-75
2022/04/08 05:48:57;;;;;;;3.35;1.08;;;6.80;74.40;;;;;;5039018;28;20087;-75
2022/04/08 05:51:22;;;;;;;2.20;1.40;;;6.90;74.60;;;;;;5043318;28;20521;-77
2022/04/08 05:53:48;;;;;;;3.67;1.25;;;6.90;74.80;;;;;;5023247;28;20508;-75
2022/04/08 05:56:13;;;;;;;1.05;0.95;;;6.90;74.90;;;;;;5027650;28;20509;-76
2022/04/08 05:58:39;;;;;;;6.30;2.42;;;6.90;74.90;;;;;;5028357;28;20051;-76
2022/04/08 06:01:04;;;;;;;3.20;1.50;;;7.00;74.90;;;;;;5044568;28;20048;-75
2022/04/08 06:03:30;;;;;;;3.85;2.17;;;7.00;74.90;;;;;;5042213;28;20067;-76
2022/04/08 06:05:55;;;;;;;3.22;2.03;;;7.00;75.00;;;;;;5027506;28;20494;-76
2022/04/08 06:08:21;;;;;;;2.00;1.60;;;7.00;75.00;;;;;;5041199;28;20037;-75
2022/04/08 06:10:47;;;;;;;1.50;1.27;;;7.10;75.00;;;;;;5032139;28;20033;-76
2022/04/08 06:13:12;;;;;;;4.97;2.10;;;7.10;75.00;;;;;;5041586;28;20119;-75
2022/04/08 06:15:38;;;;;;;13.45;5.60;;;7.10;75.00;;;;;;5044009;28;20160;-75
2022/04/08 06:18:04;;;;;;;6.10;2.72;;;7.10;75.00;;;;;;5006476;28;20040;-76
2022/04/08 06:20:29;;;;;;;4.90;2.33;;;7.20;75.10;;;;;;5039417;28;20033;-76
2022/04/08 06:22:55;;;;;;;4.75;2.40;;;7.30;75.10;;;;;;5013238;28;20453;-75
2022/04/08 06:25:21;;;;;;;6.97;1.70;;;7.30;75.10;;;;;;5038462;28;20504;-75
2022/04/08 06:28:02;;;;;;;3.10;1.60;;;7.40;75.20;;;;;;5027018;28;20067;-75
2022/04/08 06:30:28;;;;;;;3.45;1.70;;;7.50;75.30;;;;;;5017756;28;20510;-75
2022/04/08 06:32:53;;;;;;;4.55;1.73;;;7.50;74.90;;;;;;5036706;28;20060;-75
2022/04/08 06:35:19;;;;;;;6.18;2.53;;;7.50;74.90;;;;;;5040631;28;20037;-76
2022/04/08 06:37:45;;;;;;;2.47;1.90;;;7.50;74.90;;;;;;5017966;28;20033;-75
2022/04/08 06:40:11;;;;;;;3.90;1.73;;;7.60;75.10;;;;;;5046307;28;20037;-75
2022/04/08 06:42:36;;;;;;;7.10;2.08;;;7.60;75.10;;;;;;5059843;28;20039;-75
2022/04/08 06:45:03;;;;;;;3.85;2.25;;;7.70;75.10;;;;;;5025227;28;20124;-76
2022/04/08 06:47:28;;;;;;;7.35;2.20;;;7.70;75.00;;;;;;5014987;28;20028;-75
2022/04/08 06:49:54;;;;;;;4.57;2.30;;;7.80;75.00;;;;;;5049049;28;20035;-76
2022/04/08 06:52:19;;;;;;;4.28;1.30;;;7.90;75.40;;;;;;5043658;28;20032;-76
2022/04/08 06:54:45;;;;;;;3.28;1.13;;;8.00;75.10;;;;;;5002257;28;20043;-76
2022/04/08 06:57:11;;;;;;;4.15;1.13;;;8.00;75.10;;;;;;5041353;28;20076;-76
2022/04/08 06:59:36;;;;;;;3.67;1.30;;;8.10;75.10;;;;;;5032097;28;20086;-76
2022/04/08 07:02:02;;;;;;;4.32;1.20;;;8.20;75.10;;;;;;5019479;28;20047;-75
2022/04/08 07:04:28;;;;;;;3.83;1.13;;;8.30;75.00;;;;;;5028505;28;20025;-76
2022/04/08 07:06:54;;;;;;;2.65;1.20;;;8.30;74.90;;;;;;5014591;28;20523;-76
2022/04/08 07:09:19;;;;;;;4.15;1.38;;;8.40;75.00;;;;;;5049406;28;20037;-76
2022/04/08 07:11:46;;;;;;;1.52;1.20;;;8.40;75.00;;;;;;5010032;28;20033;-77
2022/04/08 07:14:15;;;;;;;1.80;1.30;;;8.50;74.90;;;;;;5015714;28;20731;-76
2022/04/08 07:16:43;;;;;;;2.85;1.38;;;8.50;74.90;;;;;;5036098;28;20056;-79
2022/04/08 07:19:10;;;;;;;1.63;1.10;;;8.50;74.90;;;;;;5050695;28;20043;-78
2022/04/08 07:21:35;;;;;;;1.95;1.13;;;8.50;74.90;;;;;;5029068;28;20044;-78
2022/04/08 07:24:01;;;;;;;2.30;1.42;;;8.50;74.90;;;;;;5039759;28;20042;-77
2022/04/08 07:26:26;;;;;;;2.35;1.38;;;8.50;74.90;;;;;;5043579;28;20100;-75
2022/04/08 07:28:52;;;;;;;1.42;0.90;;;8.50;75.10;;;;;;5026543;28;20061;-76
2022/04/08 07:31:17;;;;;;;3.00;1.25;;;8.50;75.00;;;;;;5036924;28;20037;-77
2022/04/08 07:33:43;;;;;;;1.52;1.10;;;8.60;75.00;;;;;;5047471;28;20144;-76
2022/04/08 07:36:09;;;;;;;3.05;1.00;;;8.60;75.00;;;;;;5032418;28;20040;-76
2022/04/08 07:38:35;;;;;;;2.95;0.90;;;8.60;74.80;;;;;;5045893;28;20035;-77
2022/04/08 07:41:00;;;;;;;2.83;1.35;;;8.60;74.80;;;;;;5037064;28;20027;-75
2022/04/08 07:43:26;;;;;;;3.42;1.20;;;8.60;74.80;;;;;;5048781;28;20622;-76
2022/04/08 07:45:51;;;;;;;1.40;1.30;;;8.60;74.80;;;;;;5048818;28;20024;-76
2022/04/08 07:48:17;;;;;;;1.30;0.90;;;8.60;74.80;;;;;;5020285;28;20020;-76
2022/04/08 07:50:42;;;;;;;3.30;0.98;;;8.60;74.80;;;;;;5037511;28;20040;-77
2022/04/08 07:53:08;;;;;;;2.95;1.10;;;8.70;74.90;;;;;;5036190;28;20040;-77
2022/04/08 07:55:34;;;;;;;2.53;1.30;;;8.80;75.00;;;;;;5050899;28;20039;-77
2022/04/08 07:57:59;;;;;;;2.78;1.08;;;8.80;74.90;;;;;;5021980;28;20094;-76
2022/04/08 08:00:25;;;;;;;1.83;1.30;;;8.80;74.80;;;;;;5030877;28;20051;-76
2022/04/08 08:02:51;;;;;;;4.72;1.80;;;8.90;74.80;;;;;;5034180;28;20096;-76
2022/04/08 08:05:17;;;;;;;2.45;1.40;;;8.90;74.80;;;;;;5047382;28;20021;-77
2022/04/08 08:07:53;;;;;;;24.42;3.53;;;9.00;74.80;;;;;;5046427;28;20052;-78
2022/04/08 08:10:20;;;;;;;29.70;7.28;;;9.00;74.90;;;;;;5029764;28;20215;-76
2022/04/08 08:12:45;;;;;;;15.38;3.22;;;9.10;74.70;;;;;;5031973;28;20044;-77
2022/04/08 08:15:11;;;;;;;15.60;2.58;;;9.20;74.60;;;;;;5043187;28;20068;-77
2022/04/08 08:17:38;;;;;;;12.05;2.20;;;9.30;74.20;;;;;;5024344;28;20033;-78
2022/04/08 08:20:05;;;;;;;13.27;2.05;;;9.40;73.80;;;;;;5042096;28;20131;-77
2022/04/08 08:22:30;;;;;;;7.07;1.58;;;9.40;73.50;;;;;;5032905;28;20520;-76
2022/04/08 08:24:56;;;;;;;9.52;1.30;;;9.50;73.40;;;;;;5057691;28;20040;-77
2022/04/08 08:27:21;;;;;;;7.65;1.40;;;9.60;73.00;;;;;;5034925;28;20052;-77
2022/04/08 08:29:47;;;;;;;3.50;1.45;;;9.70;72.70;;;;;;5031330;28;20029;-77
2022/04/08 08:32:12;;;;;;;4.95;1.02;;;9.80;72.40;;;;;;5024578;28;20043;-77
2022/04/08 08:34:38;;;;;;;6.80;1.75;;;9.80;72.30;;;;;;5037341;28;20060;-75
2022/04/08 08:37:03;;;;;;;4.85;1.35;;;10.00;72.10;;;;;;5048328;28;20061;-76
2022/04/08 08:39:29;;;;;;;6.97;1.75;;;10.00;71.90;;;;;;5054682;28;20068;-77
2022/04/08 08:41:55;;;;;;;5.70;1.58;;;10.10;71.60;;;;;;5018569;28;20054;-76
2022/04/08 08:44:21;;;;;;;4.40;1.83;;;10.10;71.40;;;;;;5049743;28;20033;-76
2022/04/08 08:46:46;;;;;;;7.95;2.50;;;10.20;71.20;;;;;;5026108;28;20033;-76
2022/04/08 08:49:12;;;;;;;7.25;1.80;;;10.20;70.90;;;;;;5033727;28;20041;-76
2022/04/08 08:51:37;;;;;;;5.70;2.72;;;10.20;70.60;;;;;;5050180;28;20036;-76
2022/04/08 08:54:03;;;;;;;8.95;2.08;;;10.20;70.50;;;;;;5050579;28;20037;-77
2022/04/08 08:56:29;;;;;;;5.53;2.38;;;10.30;70.40;;;;;;5046041;28;20033;-77
2022/04/08 08:58:54;;;;;;;8.30;3.05;;;10.30;70.20;;;;;;5048129;28;20059;-76
2022/04/08 09:01:20;;;;;;;6.93;2.53;;;10.30;70.00;;;;;;5055115;28;20028;-76
2022/04/08 09:03:45;;;;;;;4.35;1.50;;;10.30;69.80;;;;;;5040234;28;20035;-76
2022/04/08 09:06:11;;;;;;;8.77;1.70;;;10.40;69.60;;;;;;5041045;28;20596;-77
2022/04/08 09:08:38;;;;;;;8.93;1.70;;;10.40;69.50;;;;;;5032379;28;20030;-76
2022/04/08 09:11:04;;;;;;;7.53;1.55;;;10.40;69.20;;;;;;5013024;28;20033;-77
2022/04/08 09:13:30;;;;;;;8.38;1.60;;;10.30;69.00;;;;;;5027352;28;20117;-76
2022/04/08 09:15:59;;;;;;;5.47;1.33;;;10.30;68.90;;;;;;5046558;28;20048;-76
2022/04/08 09:18:32;;;;;;;5.05;1.48;;;10.30;68.90;;;;;;5037101;28;20456;-76
2022/04/08 09:21:01;;;;;;;5.82;1.50;;;10.30;69.00;;;;;;5021853;28;20040;-76
2022/04/08 09:23:28;;;;;;;6.97;1.60;;;10.30;68.90;;;;;;5030259;28;20086;-80
2022/04/08 09:26:04;;;;;;;7.93;1.70;;;10.30;68.70;;;;;;5009616;28;20181;-77
2022/04/08 09:28:37;;;;;;;9.98;2.85;;;10.30;69.20;;;;;;5049907;28;20033;-76
2022/04/08 09:31:03;;;;;;;11.15;1.67;;;10.30;68.50;;;;;;5048030;28;20043;-76
2022/04/08 09:33:28;;;;;;;6.75;1.08;;;10.30;68.60;;;;;;5018793;28;20029;-76
2022/04/08 09:35:55;;;;;;;6.13;1.40;;;10.30;68.40;;;;;;5017491;28;20027;-77
2022/04/08 09:38:22;;;;;;;6.88;1.40;;;10.30;68.40;;;;;;5064740;28;20041;-76
2022/04/08 09:40:48;;;;;;;3.90;1.75;;;10.30;68.40;;;;;;5015258;28;20650;-76
2022/04/08 09:43:13;;;;;;;4.38;1.85;;;10.30;68.40;;;;;;5019428;28;20052;-77
2022/04/08 09:45:39;;;;;;;7.13;2.53;;;10.30;68.30;;;;;;5016791;28;20072;-77
2022/04/08 09:48:06;;;;;;;8.95;1.95;;;10.30;68.50;;;;;;5025649;28;20129;-78
2022/04/08 09:50:32;;;;;;;4.32;1.80;;;10.30;68.40;;;;;;5027253;28;20064;-77
2022/04/08 09:52:57;;;;;;;7.18;2.28;;;10.30;68.40;;;;;;5012486;28;20040;-77
2022/04/08 09:55:25;;;;;;;6.18;2.40;;;10.30;68.40;;;;;;5032738;28;20070;-77
2022/04/08 09:57:53;;;;;;;14.82;3.83;;;10.20;68.40;;;;;;5050209;28;20071;-76
2022/04/08 10:00:19;;;;;;;3.83;1.50;;;10.20;68.60;;;;;;5041156;28;20062;-78
2022/04/08 10:02:45;;;;;;;7.60;1.90;;;10.20;68.70;;;;;;5034749;28;20029;-76
2022/04/08 10:05:10;;;;;;;10.38;2.17;;;10.20;68.80;;;;;;5039910;28;20036;-76
2022/04/08 10:07:36;;;;;;;7.28;2.10;;;10.20;68.80;;;;;;5039391;28;20578;-77
2022/04/08 10:10:04;;;;;;;7.35;2.17;;;10.30;68.90;;;;;;5009602;28;20170;-78
2022/04/08 10:13:00;;;;;;;6.15;1.88;;;10.30;68.90;;;;;;5030829;28;20051;-77
2022/04/08 10:15:28;;;;;;;7.90;2.08;;;10.30;68.80;;;;;;5033822;28;20059;-79
2022/04/08 10:17:59;;;;;;;6.00;1.70;;;10.30;68.80;;;;;;5015330;28;20561;-77
2022/04/08 10:20:26;;;;;;;5.40;1.50;;;10.20;68.70;;;;;;5009074;28;20056;-77
2022/04/08 10:23:11;;;;;;;3.28;1.40;;;10.20;68.70;;;;;;5030863;28;20571;-79
2022/04/08 10:25:40;;;;;;;3.75;1.10;;;10.20;68.90;;;;;;5009894;28;20036;-77
2022/04/08 10:28:07;;;;;;;4.93;1.60;;;10.20;68.80;;;;;;5042518;28;20125;-76
2022/04/08 10:30:35;;;;;;;4.03;1.40;;;10.10;68.90;;;;;;5012558;28;20066;-78
2022/04/08 10:33:01;;;;;;;7.50;2.63;;;10.00;69.00;;;;;;5014867;28;20730;-77
2022/04/08 10:35:27;;;;;;;7.50;1.77;;;10.00;69.20;;;;;;5018637;28;20067;-77
2022/04/08 10:37:56;;;;;;;3.70;1.65;;;9.90;69.20;;;;;;4994582;28;20053;-77
2022/04/08 10:40:21;;;;;;;5.00;1.88;;;9.90;69.40;;;;;;5030634;28;20531;-77
2022/04/08 10:43:00;;;;;;;5.97;2.20;;;9.90;69.50;;;;;;5039548;28;20044;-76
2022/04/08 10:45:26;;;;;;;5.55;1.52;;;9.90;69.70;;;;;;5032546;28;20066;-77
2022/04/08 10:47:51;;;;;;;7.50;2.97;;;9.90;69.50;;;;;;4989736;28;20534;-77
2022/04/08 10:50:24;;;;;;;8.98;2.42;;;9.80;69.60;;;;;;5041334;28;20051;-77
2022/04/08 10:52:50;;;;;;;4.93;1.60;;;9.70;69.90;;;;;;5031324;28;20497;-77
2022/04/08 10:55:15;;;;;;;3.90;1.70;;;9.60;69.90;;;;;;5033295;28;20047;-77
2022/04/08 10:57:43;;;;;;;5.93;1.50;;;9.60;70.10;;;;;;5010420;28;20037;-78
2022/04/08 11:00:15;;;;;;;4.00;2.25;;;9.60;70.20;;;;;;4998573;28;20041;-78
2022/04/08 11:02:43;;;;;;;5.88;3.05;;;9.60;70.40;;;;;;5007357;28;20021;-77
2022/04/08 11:05:11;;;;;;;7.50;6.80;;;9.60;70.40;;;;;;5008278;28;20048;-76
2022/04/08 11:07:43;;;;;;;6.72;2.67;;;9.60;70.40;;;;;;5035553;28;21082;-76
2022/04/08 11:10:12;;;;;;;6.28;2.50;;;9.60;70.50;;;;;;5038942;28;20048;-77
2022/04/08 11:12:44;;;;;;;6.78;2.58;;;9.60;70.50;;;;;;5019985;28;20032;-78
2022/04/08 11:15:15;;;;;;;;;;;9.70;70.70;;;;;;5049513;28;20092;-76
2022/04/08 11:17:41;;;;;;;5.72;2.30;;;9.60;70.50;;;;;;5030840;28;19971;-76
2022/04/08 11:20:16;;;;;;;3.53;2.22;;;9.60;70.60;;;;;;4989099;28;20046;-77
2022/04/08 11:22:45;;;;;;;6.55;3.10;;;9.60;70.70;;;;;;5015901;28;20126;-76
2022/04/08 11:25:30;;;;;;;5.50;2.60;;;9.60;70.80;;;;;;4995724;28;20053;-77
2022/04/08 11:28:03;;;;;;;4.63;2.10;;;9.60;71.10;;;;;;5014961;28;20045;-77
2022/04/08 11:30:30;;;;;;;4.03;1.60;;;9.60;71.20;;;;;;5009991;28;20029;-77
2022/04/08 11:32:57;;;;;;;4.78;2.70;;;9.50;71.00;;;;;;4997597;28;20604;-77
2022/04/08 11:35:22;;;;;;;4.97;2.20;;;9.50;71.20;;;;;;4996663;28;20115;-78
2022/04/08 11:37:48;;;;;;;7.60;1.95;;;9.50;71.40;;;;;;4988448;28;20188;-75
2022/04/08 11:40:17;;;;;;;3.47;1.27;;;9.40;71.50;;;;;;5012576;28;20037;-76
2022/04/08 11:42:46;;;;;;;2.92;1.30;;;9.40;71.60;;;;;;5017708;28;20038;-76
2022/04/08 11:45:12;;;;;;;1.77;1.40;;;9.40;71.60;;;;;;5013525;28;20616;-76
2022/04/08 11:47:44;;;;;;;2.30;1.60;;;9.30;71.70;;;;;;4995310;28;20048;-77
2022/04/08 11:50:10;;;;;;;;;;;9.20;71.80;;;;;;5001372;28;20049;-76
2022/04/08 11:52:37;;;;;;;6.43;2.63;;;9.20;71.70;;;;;;5008348;28;19966;-78
2022/04/08 11:55:06;;;;;;;4.43;2.20;;;9.20;71.80;;;;;;4988678;28;20048;-77
2022/04/08 11:57:33;;;;;;;5.15;2.25;;;9.20;72.00;;;;;;5003049;28;20044;-77
2022/04/08 12:00:00;;;;;;;3.95;1.90;;;9.30;72.10;;;;;;5015364;28;20041;-77
2022/04/08 12:02:25;;;;;;;3.38;1.33;;;9.20;72.10;;;;;;5019364;28;20041;-76
2022/04/08 12:04:51;;;;;;;4.53;1.70;;;9.20;72.20;;;;;;5019494;28;20048;-77
2022/04/08 12:07:28;;;;;;;3.83;1.95;;;9.20;72.20;;;;;;4992789;28;20037;-77
2022/04/08 12:09:53;;;;;;;2.60;1.38;;;9.20;73.20;;;;;;5006411;28;20029;-76
2022/04/08 12:12:23;;;;;;;4.18;1.98;;;9.20;72.20;;;;;;5020085;28;20407;-76
2022/04/08 12:14:49;;;;;;;9.60;2.45;;;9.20;72.40;;;;;;5006415;28;20045;-77
2022/04/08 12:17:14;;;;;;;4.50;1.45;;;9.20;72.50;;;;;;5029961;28;21931;-77
2022/04/08 12:19:40;;;;;;;2.58;1.35;;;9.20;72.50;;;;;;5019823;28;20613;-76
2022/04/08 12:22:10;;;;;;;6.10;3.95;;;9.20;72.70;;;;;;5062384;28;20536;-77
2022/04/08 12:24:37;;;;;;;4.22;2.20;;;9.20;72.80;;;;;;5024676;28;20032;-77
2022/04/08 12:27:12;;;;;;;5.55;2.42;;;9.10;72.70;;;;;;5024305;28;20036;-76
2022/04/08 12:29:39;;;;;;;4.18;2.00;;;9.10;73.70;;;;;;5022030;28;20037;-77
2022/04/08 12:32:14;;;;;;;12.35;7.05;;;9.10;72.90;;;;;;5026283;28;20041;-77
2022/04/08 12:34:43;;;;;;;71.97;30.27;;;9.10;73.20;;;;;;5001621;28;20116;-76
2022/04/08 12:37:09;;;;;;;13.02;5.90;;;9.10;73.20;;;;;;5027668;28;20121;-76
2022/04/08 12:39:34;;;;;;;13.50;5.93;;;9.10;73.20;;;;;;5035216;28;20126;-77
2022/04/08 12:42:00;;;;;;;4.43;2.90;;;9.10;73.20;;;;;;5030858;28;20309;-76
2022/04/08 12:44:26;;;;;;;11.20;6.45;;;9.20;73.20;;;;;;5028983;28;20642;-76
2022/04/08 12:46:52;;;;;;;10.30;5.25;;;9.10;73.20;;;;;;5038356;28;20067;-76
2022/04/08 12:49:18;;;;;;;4.22;2.90;;;9.20;73.30;;;;;;5024862;28;20033;-77
2022/04/08 12:51:43;;;;;;;2.42;1.67;;;9.20;73.30;;;;;;5023486;28;20051;-77